Gerard D — WTG3761 — position and weather

sailwx.info

Track history (hours):
 
Tides and Currents Weather Stations Pressure Air Temp Water Temp Dewpoint Dewpoint Depression Visibility Wind Speed Wind Dir Waves Ship Positions

Gerard D

Owner: WEEKS MARINE, INC., CRANFORD, NJ. More information available from US FCC via Universal Licensing System and Coast Guard Vessel Documentation Center.

Last reported at 2018-Jun-02 21:48 UTC. Time now 2018-Jun-21 10:10 UTC.
Position N 29°34' W 090°30'.
Warning: this ship's position is 18 days out of date.

Length 20 m; draft 3 m.

Type: Tug. MMSI: 366939130.

Date/timePositionNaut miles runAvg speedWind from/ knotsBaromVisibWave heightAir tempDewpointWater temp
2018-Jun-02 21:48N 29°34' W 090°30'2 5.8
2018-Jun-02 21:27N 29°34' W 090°32'4 8.2
2018-Jun-02 21:00N 29°35' W 090°36'4 7.3
2018-Jun-02 20:30N 29°36' W 090°40'0 0.1
2018-Jun-02 20:00N 29°36' W 090°40'0 0.3
2018-Jun-02 19:30N 29°36' W 090°40'0 0.0
2018-Jun-02 19:00N 29°36' W 090°40'0 0.0
2018-Jun-02 18:27N 29°36' W 090°40'0 0.0
2018-Jun-02 17:59N 29°36' W 090°40'1 2.2
2018-Jun-02 17:28N 29°35' W 090°39'3 6.1
2018-Jun-02 17:00N 29°35' W 090°36'  
2018-May-25 21:47N 29°34' W 090°31'2 8.8
2018-May-25 21:30N 29°34' W 090°34'3 5.0
2018-May-25 21:00N 29°35' W 090°36'0 0.0
2018-May-25 20:30N 29°35' W 090°36'0 0.0
2018-May-25 19:59N 29°35' W 090°36'0 0.0
2018-May-25 19:30N 29°35' W 090°36'0 0.0
2018-May-25 19:00N 29°35' W 090°36'0 0.0
2018-May-25 18:30N 29°35' W 090°36'0 0.0
2018-May-25 18:00N 29°35' W 090°36'0 0.0
2018-May-25 17:30N 29°35' W 090°36'0 0.0
2018-May-25 17:00N 29°35' W 090°36'0 0.0
2018-May-25 16:30N 29°35' W 090°36'0 0.0
2018-May-25 16:00N 29°35' W 090°36'0 0.0
2018-May-25 15:30N 29°35' W 090°36'0 0.3
2018-May-25 15:00N 29°35' W 090°36'0 0.0
2018-May-25 14:30N 29°35' W 090°36'0 0.0
2018-May-25 14:00N 29°35' W 090°36'0 0.0
2018-May-25 13:30N 29°35' W 090°36'0 0.4
2018-May-25 13:00N 29°35' W 090°37'0 0.0
2018-May-25 12:20N 29°35' W 090°37'0 0.0
2018-May-25 12:00N 29°35' W 090°37'0 0.0
2018-May-25 11:30N 29°35' W 090°37'0 0.0
2018-May-25 11:00N 29°35' W 090°37'0 0.0
2018-May-25 10:30N 29°35' W 090°37'0 0.0
2018-May-25 10:00N 29°35' W 090°37'0 0.0
2018-May-25 09:30N 29°35' W 090°37'0 0.0
2018-May-25 08:56N 29°35' W 090°37'0 0.0
2018-May-25 08:07N 29°35' W 090°37'0 0.0
2018-May-25 07:37N 29°35' W 090°37'0 0.0
2018-May-25 07:24N 29°35' W 090°37'0 0.0
2018-May-25 07:00N 29°35' W 090°37'0 0.0
2018-May-25 06:04N 29°35' W 090°37'0 0.0
2018-May-25 05:57N 29°35' W 090°37'0 0.0
2018-May-25 04:36N 29°35' W 090°37'0 0.0
2018-May-25 04:29N 29°35' W 090°37'0 0.0
2018-May-25 03:53N 29°35' W 090°37'0 0.0
2018-May-25 03:29N 29°35' W 090°37'0 0.0
2018-May-25 03:00N 29°35' W 090°37'0 0.0
2018-May-25 02:30N 29°35' W 090°37'0 0.0
2018-May-25 02:00N 29°35' W 090°37'0 0.0
2018-May-25 01:28N 29°35' W 090°37'0 0.0
2018-May-25 00:51N 29°35' W 090°37'0 0.0
2018-May-25 00:29N 29°35' W 090°37'0 0.0
2018-May-25 00:00N 29°35' W 090°37'0 0.0
2018-May-24 23:30N 29°35' W 090°37'0 0.0
2018-May-24 23:00N 29°35' W 090°37'0 0.0
2018-May-24 22:27N 29°35' W 090°37'0 0.3
2018-May-24 21:57N 29°35' W 090°36'0 0.3
2018-May-24 21:30N 29°35' W 090°37'0 0.0
2018-May-24 20:55N 29°35' W 090°37'0 0.0
2018-May-24 20:21N 29°35' W 090°37'0 0.0
2018-May-24 20:00N 29°35' W 090°37'0 0.0
2018-May-24 19:28N 29°35' W 090°37'0 0.0
2018-May-24 19:00N 29°35' W 090°37'0 0.0
2018-May-24 18:28N 29°35' W 090°37'0 0.0
2018-May-24 17:59N 29°35' W 090°37'0 0.0
2018-May-24 17:30N 29°35' W 090°37'0 0.0
2018-May-24 16:53N 29°35' W 090°37'0 0.0
2018-May-24 16:29N 29°35' W 090°37'0 0.0
2018-May-24 15:58N 29°35' W 090°37'0 0.0
2018-May-24 15:25N 29°35' W 090°37'0 0.0
2018-May-24 14:57N 29°35' W 090°37'0 0.0
2018-May-24 14:29N 29°35' W 090°37'0 0.0
2018-May-24 14:00N 29°35' W 090°37'0 0.0
2018-May-24 13:29N 29°35' W 090°37'0 0.0
2018-May-24 09:00N 29°35' W 090°37'0 0.0
2018-May-24 08:29N 29°35' W 090°37'0 0.0
2018-May-24 07:58N 29°35' W 090°37'0 0.0
2018-May-24 07:30N 29°35' W 090°37'0 0.0
2018-May-24 07:00N 29°35' W 090°37'0 0.0
2018-May-24 06:25N 29°35' W 090°37'0 0.0
2018-May-24 05:57N 29°35' W 090°37'0 0.0
2018-May-24 05:30N 29°35' W 090°37'0 0.0
2018-May-24 04:51N 29°35' W 090°37'0 0.0
2018-May-24 04:26N 29°35' W 090°37'0 0.0
2018-May-24 03:56N 29°35' W 090°37'0 0.0
2018-May-24 03:20N 29°35' W 090°37'0 0.0
2018-May-24 02:59N 29°35' W 090°37'0 0.0
2018-May-24 02:30N 29°35' W 090°37'0 0.0
2018-May-24 01:59N 29°35' W 090°37'0 0.0
2018-May-24 01:30N 29°35' W 090°37'0 0.0
2018-May-24 00:59N 29°35' W 090°37'0 0.0
2018-May-24 00:28N 29°35' W 090°37'0 0.0
2018-May-24 00:00N 29°35' W 090°37'0 0.0
2018-May-23 23:30N 29°35' W 090°37'0 0.0
2018-May-23 22:58N 29°35' W 090°37'0 0.0
2018-May-23 22:20N 29°35' W 090°37'  
Track history (hours):
 
Tides and Currents Weather Stations Pressure Air Temp Water Temp Dewpoint Dewpoint Depression Visibility Wind Speed Wind Dir Waves Ship Positions

Gerard D

Owner: WEEKS MARINE, INC., CRANFORD, NJ. More information available from US FCC via Universal Licensing System and Coast Guard Vessel Documentation Center.

Last reported at 2018-Jun-02 21:48 UTC. Time now 2018-Jun-21 10:10 UTC.
Position N 29°34' W 090°30'.
Warning: this ship's position is 18 days out of date.

Length 20 m; draft 3 m.

Type: Tug. MMSI: 366939130.

Date/timePositionNaut miles runAvg speedWind from/ knotsBaromVisibWave heightAir tempDewpointWater temp
2018-Jun-02 21:48N 29°34' W 090°30'2 5.8
2018-Jun-02 21:27N 29°34' W 090°32'4 8.2
2018-Jun-02 21:00N 29°35' W 090°36'4 7.3
2018-Jun-02 20:30N 29°36' W 090°40'0 0.1
2018-Jun-02 20:00N 29°36' W 090°40'0 0.3
2018-Jun-02 19:30N 29°36' W 090°40'0 0.0
2018-Jun-02 19:00N 29°36' W 090°40'0 0.0
2018-Jun-02 18:27N 29°36' W 090°40'0 0.0
2018-Jun-02 17:59N 29°36' W 090°40'1 2.2
2018-Jun-02 17:28N 29°35' W 090°39'3 6.1
2018-Jun-02 17:00N 29°35' W 090°36'  
2018-May-25 21:47N 29°34' W 090°31'2 8.8
2018-May-25 21:30N 29°34' W 090°34'3 5.0
2018-May-25 21:00N 29°35' W 090°36'0 0.0
2018-May-25 20:30N 29°35' W 090°36'0 0.0
2018-May-25 19:59N 29°35' W 090°36'0 0.0
2018-May-25 19:30N 29°35' W 090°36'0 0.0
2018-May-25 19:00N 29°35' W 090°36'0 0.0
2018-May-25 18:30N 29°35' W 090°36'0 0.0
2018-May-25 18:00N 29°35' W 090°36'0 0.0
2018-May-25 17:30N 29°35' W 090°36'0 0.0
2018-May-25 17:00N 29°35' W 090°36'0 0.0
2018-May-25 16:30N 29°35' W 090°36'0 0.0
2018-May-25 16:00N 29°35' W 090°36'0 0.0
2018-May-25 15:30N 29°35' W 090°36'0 0.3
2018-May-25 15:00N 29°35' W 090°36'0 0.0
2018-May-25 14:30N 29°35' W 090°36'0 0.0
2018-May-25 14:00N 29°35' W 090°36'0 0.0
2018-May-25 13:30N 29°35' W 090°36'0 0.4
2018-May-25 13:00N 29°35' W 090°37'0 0.0
2018-May-25 12:20N 29°35' W 090°37'0 0.0
2018-May-25 12:00N 29°35' W 090°37'0 0.0
2018-May-25 11:30N 29°35' W 090°37'0 0.0
2018-May-25 11:00N 29°35' W 090°37'0 0.0
2018-May-25 10:30N 29°35' W 090°37'0 0.0
2018-May-25 10:00N 29°35' W 090°37'0 0.0
2018-May-25 09:30N 29°35' W 090°37'0 0.0
2018-May-25 08:56N 29°35' W 090°37'0 0.0
2018-May-25 08:07N 29°35' W 090°37'0 0.0
2018-May-25 07:37N 29°35' W 090°37'0 0.0
2018-May-25 07:24N 29°35' W 090°37'0 0.0
2018-May-25 07:00N 29°35' W 090°37'0 0.0
2018-May-25 06:04N 29°35' W 090°37'0 0.0
2018-May-25 05:57N 29°35' W 090°37'0 0.0
2018-May-25 04:36N 29°35' W 090°37'0 0.0
2018-May-25 04:29N 29°35' W 090°37'0 0.0
2018-May-25 03:53N 29°35' W 090°37'0 0.0
2018-May-25 03:29N 29°35' W 090°37'0 0.0
2018-May-25 03:00N 29°35' W 090°37'0 0.0
2018-May-25 02:30N 29°35' W 090°37'0 0.0
2018-May-25 02:00N 29°35' W 090°37'0 0.0
2018-May-25 01:28N 29°35' W 090°37'0 0.0
2018-May-25 00:51N 29°35' W 090°37'0 0.0
2018-May-25 00:29N 29°35' W 090°37'0 0.0
2018-May-25 00:00N 29°35' W 090°37'0 0.0
2018-May-24 23:30N 29°35' W 090°37'0 0.0
2018-May-24 23:00N 29°35' W 090°37'0 0.0
2018-May-24 22:27N 29°35' W 090°37'0 0.3
2018-May-24 21:57N 29°35' W 090°36'0 0.3
2018-May-24 21:30N 29°35' W 090°37'0 0.0
2018-May-24 20:55N 29°35' W 090°37'0 0.0
2018-May-24 20:21N 29°35' W 090°37'0 0.0
2018-May-24 20:00N 29°35' W 090°37'0 0.0
2018-May-24 19:28N 29°35' W 090°37'0 0.0
2018-May-24 19:00N 29°35' W 090°37'0 0.0
2018-May-24 18:28N 29°35' W 090°37'0 0.0
2018-May-24 17:59N 29°35' W 090°37'0 0.0
2018-May-24 17:30N 29°35' W 090°37'0 0.0
2018-May-24 16:53N 29°35' W 090°37'0 0.0
2018-May-24 16:29N 29°35' W 090°37'0 0.0
2018-May-24 15:58N 29°35' W 090°37'0 0.0
2018-May-24 15:25N 29°35' W 090°37'0 0.0
2018-May-24 14:57N 29°35' W 090°37'0 0.0
2018-May-24 14:29N 29°35' W 090°37'0 0.0
2018-May-24 14:00N 29°35' W 090°37'0 0.0
2018-May-24 13:29N 29°35' W 090°37'0 0.0
2018-May-24 09:00N 29°35' W 090°37'0 0.0
2018-May-24 08:29N 29°35' W 090°37'0 0.0
2018-May-24 07:58N 29°35' W 090°37'0 0.0
2018-May-24 07:30N 29°35' W 090°37'0 0.0
2018-May-24 07:00N 29°35' W 090°37'0 0.0
2018-May-24 06:25N 29°35' W 090°37'0 0.0
2018-May-24 05:57N 29°35' W 090°37'0 0.0
2018-May-24 05:30N 29°35' W 090°37'0 0.0
2018-May-24 04:51N 29°35' W 090°37'0 0.0
2018-May-24 04:26N 29°35' W 090°37'0 0.0
2018-May-24 03:56N 29°35' W 090°37'0 0.0
2018-May-24 03:20N 29°35' W 090°37'0 0.0
2018-May-24 02:59N 29°35' W 090°37'0 0.0
2018-May-24 02:30N 29°35' W 090°37'0 0.0
2018-May-24 01:59N 29°35' W 090°37'0 0.0
2018-May-24 01:30N 29°35' W 090°37'0 0.0
2018-May-24 00:59N 29°35' W 090°37'0 0.0
2018-May-24 00:28N 29°35' W 090°37'0 0.0
2018-May-24 00:00N 29°35' W 090°37'0 0.0
2018-May-23 23:30N 29°35' W 090°37'0 0.0
2018-May-23 22:58N 29°35' W 090°37'0 0.0
2018-May-23 22:20N 29°35' W 090°37'  

Dump ship's entire track history